createdAt,value
2023-01-23T00:00:19.100Z,-2.27
2023-01-23T00:02:46.587Z,-2.54
2023-01-23T00:05:13.143Z,-2.13
2023-01-23T00:07:40.330Z,-1.82
2023-01-23T00:10:07.218Z,-2.03
2023-01-23T00:12:34.043Z,-1.90
2023-01-23T00:15:00.624Z,-1.86
2023-01-23T00:17:28.013Z,-1.59
2023-01-23T00:19:54.617Z,-2.18
2023-01-23T00:22:22.039Z,-2.48
2023-01-23T00:24:48.683Z,-2.05
2023-01-23T00:27:15.374Z,-2.11
2023-01-23T00:29:42.471Z,-1.99
2023-01-23T00:32:09.016Z,-2.28
2023-01-23T00:34:35.826Z,-1.72
2023-01-23T00:37:02.476Z,-1.77
2023-01-23T00:39:28.877Z,-1.90
2023-01-23T00:41:55.555Z,-2.13
2023-01-23T00:44:22.404Z,-2.92
2023-01-23T00:46:48.903Z,-2.41
2023-01-23T00:49:15.349Z,-2.67
2023-01-23T00:51:41.835Z,-2.89
2023-01-23T00:54:08.222Z,-2.53
2023-01-23T00:56:35.030Z,-2.84
2023-01-23T00:59:01.809Z,-2.67
2023-01-23T01:01:28.257Z,-2.83
2023-01-23T01:03:54.767Z,-2.55
2023-01-23T01:06:21.416Z,-2.25
2023-01-23T01:08:48.206Z,-3.20
2023-01-23T01:11:15.701Z,-2.45
2023-01-23T01:13:42.495Z,-2.82
2023-01-23T01:16:08.992Z,-2.32
2023-01-23T01:18:35.739Z,-2.34
2023-01-23T01:21:02.256Z,-2.04
2023-01-23T01:23:29.219Z,-2.06
2023-01-23T01:25:55.905Z,-2.03
2023-01-23T01:28:22.312Z,-1.94
2023-01-23T01:30:48.852Z,-1.52
2023-01-23T01:33:15.501Z,-1.35
2023-01-23T01:35:41.972Z,-1.57
2023-01-23T01:38:08.537Z,-1.28
2023-01-23T01:40:35.021Z,-1.16
2023-01-23T01:43:01.764Z,-1.90
2023-01-23T01:45:28.640Z,-1.93
2023-01-23T01:47:55.005Z,-2.47
2023-01-23T01:50:21.546Z,-2.05
2023-01-23T01:52:48.122Z,-2.11
2023-01-23T01:55:15.630Z,-2.16
2023-01-23T01:57:41.991Z,-2.65
2023-01-23T02:00:08.389Z,-2.56
2023-01-23T02:02:35.022Z,-3.14
2023-01-23T02:05:01.787Z,-2.48
2023-01-23T02:07:28.249Z,-2.46
2023-01-23T02:09:54.633Z,-2.04
2023-01-23T02:12:21.171Z,-2.38
2023-01-23T02:14:48.067Z,-1.87
2023-01-23T02:17:16.833Z,-2.00
2023-01-23T02:19:43.971Z,-2.16
2023-01-23T02:22:10.453Z,-2.45
2023-01-23T02:24:36.830Z,-2.14
2023-01-23T02:27:03.486Z,-1.80
2023-01-23T02:29:30.170Z,-1.69
2023-01-23T02:31:57.063Z,-1.29
2023-01-23T02:34:23.956Z,-1.29
2023-01-23T02:36:50.688Z,-1.18
2023-01-23T02:39:17.290Z,-2.43
2023-01-23T02:41:43.947Z,-1.59
2023-01-23T02:44:10.414Z,-1.32
2023-01-23T02:46:36.839Z,-1.13
2023-01-23T02:49:03.216Z,-0.95
2023-01-23T02:51:29.657Z,-0.80
2023-01-23T02:53:56.133Z,-1.00
2023-01-23T02:56:22.607Z,-1.04
2023-01-23T02:58:49.194Z,-0.97
2023-01-23T03:01:17.245Z,-0.76
2023-01-23T03:03:43.921Z,-0.86
2023-01-23T03:06:11.031Z,-1.02
2023-01-23T03:08:37.476Z,-1.12
2023-01-23T03:11:04.100Z,-1.80
2023-01-23T03:13:30.582Z,-1.94
2023-01-23T03:15:57.006Z,-1.89
2023-01-23T03:18:23.433Z,-1.58
2023-01-23T03:20:49.840Z,-1.15
2023-01-23T03:23:16.316Z,-1.44
2023-01-23T03:25:43.806Z,-1.18
2023-01-23T03:28:10.588Z,-1.73
2023-01-23T03:30:36.997Z,-1.84
2023-01-23T03:33:03.526Z,-2.51
2023-01-23T03:35:30.071Z,-2.63
2023-01-23T03:37:56.475Z,-3.06
2023-01-23T03:40:22.899Z,-3.17
2023-01-23T03:42:49.307Z,-2.41
2023-01-23T03:45:15.836Z,-3.14
2023-01-23T03:47:42.242Z,-2.41
2023-01-23T03:50:08.723Z,-2.96
2023-01-23T03:52:35.170Z,-2.28
2023-01-23T03:55:01.681Z,-2.28
2023-01-23T03:57:28.246Z,-1.66
2023-01-23T03:59:54.840Z,-1.48
2023-01-23T04:02:21.342Z,-1.12
2023-01-23T04:04:47.966Z,-1.95
2023-01-23T04:07:14.364Z,-1.57
2023-01-23T04:09:40.754Z,-1.42
2023-01-23T04:12:07.156Z,-1.78
2023-01-23T04:14:33.798Z,-1.78
2023-01-23T04:17:00.208Z,-1.39
2023-01-23T04:19:26.969Z,-2.44
2023-01-23T04:21:53.517Z,-2.78
2023-01-23T04:24:20.013Z,-2.65
2023-01-23T04:26:46.675Z,-2.17
2023-01-23T04:29:13.431Z,-1.77
2023-01-23T04:31:40.182Z,-1.75
2023-01-23T04:34:07.856Z,-1.55
2023-01-23T04:36:34.271Z,-1.60
2023-01-23T04:39:00.890Z,-1.80
2023-01-23T04:41:27.429Z,-1.50
2023-01-23T04:43:53.957Z,-1.48
2023-01-23T04:46:20.642Z,-1.67
2023-01-23T04:48:48.811Z,-1.86
2023-01-23T04:51:15.457Z,-1.66
2023-01-23T04:53:42.278Z,-1.64
2023-01-23T04:56:08.663Z,-1.97
2023-01-23T04:58:35.121Z,-1.59
2023-01-23T05:01:01.544Z,-1.76
2023-01-23T05:03:28.544Z,-1.90
2023-01-23T05:05:54.983Z,-2.17
2023-01-23T05:08:21.420Z,-2.01
2023-01-23T05:10:47.865Z,-1.60
2023-01-23T05:13:14.513Z,-3.34
2023-01-23T05:15:40.998Z,-2.80
2023-01-23T05:18:07.410Z,-2.19
2023-01-23T05:20:33.834Z,-2.14
2023-01-23T05:23:00.537Z,-2.46
2023-01-23T05:25:27.318Z,-2.30
2023-01-23T05:27:54.514Z,-1.96
2023-01-23T05:30:21.082Z,-1.67
2023-01-23T05:32:48.093Z,-1.86
2023-01-23T05:35:14.524Z,-1.65
2023-01-23T05:37:41.102Z,-1.45
2023-01-23T05:40:07.778Z,-2.38
2023-01-23T05:42:34.197Z,-2.76
2023-01-23T05:45:00.997Z,-2.32
2023-01-23T05:47:27.568Z,-2.61
2023-01-23T05:49:53.996Z,-2.50
2023-01-23T05:52:21.565Z,-1.75
2023-01-23T05:54:48.342Z,-1.92
2023-01-23T05:57:15.100Z,-2.70
2023-01-23T05:59:41.644Z,-2.27
2023-01-23T06:02:09.541Z,-2.24
2023-01-23T06:04:35.986Z,-2.39
2023-01-23T06:07:02.568Z,-2.09
2023-01-23T06:09:29.018Z,-2.54
2023-01-23T06:11:55.380Z,-2.98
2023-01-23T06:14:21.828Z,-3.24
2023-01-23T06:16:48.337Z,-2.39
2023-01-23T06:19:15.031Z,-2.99
2023-01-23T06:21:41.631Z,-2.19
2023-01-23T06:24:08.087Z,-2.05
2023-01-23T06:26:34.455Z,-1.81
2023-01-23T06:29:00.941Z,-2.08
2023-01-23T06:31:29.575Z,-2.13
2023-01-23T06:33:56.044Z,-1.84
2023-01-23T06:36:22.657Z,-2.02
2023-01-23T06:38:49.314Z,-1.78
2023-01-23T06:41:16.990Z,-1.43
2023-01-23T06:43:45.232Z,-2.87
2023-01-23T06:46:12.184Z,-2.47
2023-01-23T06:48:38.762Z,-2.60
2023-01-23T06:51:05.193Z,-2.52
2023-01-23T06:53:31.844Z,-2.18
2023-01-23T06:55:58.437Z,-3.54
2023-01-23T06:58:24.920Z,-3.25
2023-01-23T07:00:51.815Z,-2.57
2023-01-23T07:03:18.505Z,-2.49
2023-01-23T07:05:45.057Z,-2.83
2023-01-23T07:08:11.590Z,-3.14
2023-01-23T07:10:38.019Z,-2.67
2023-01-23T07:13:04.558Z,-3.26
2023-01-23T07:15:30.995Z,-3.08
2023-01-23T07:17:57.456Z,-2.58
2023-01-23T07:20:23.835Z,-2.47
2023-01-23T07:22:50.252Z,-2.71
2023-01-23T07:25:16.660Z,-3.10
2023-01-23T07:27:44.117Z,-2.49
2023-01-23T07:30:10.537Z,-2.95
2023-01-23T07:32:37.037Z,-2.12
2023-01-23T07:35:03.503Z,-1.76
2023-01-23T07:37:29.955Z,-2.14
2023-01-23T07:39:56.581Z,-1.95
2023-01-23T07:42:23.080Z,-2.40
2023-01-23T07:44:49.632Z,-3.16
2023-01-23T07:47:17.063Z,-2.47
2023-01-23T07:49:43.525Z,-3.06
2023-01-23T07:52:09.978Z,-3.00
2023-01-23T07:54:36.518Z,-2.48
2023-01-23T07:57:03.048Z,-2.47
2023-01-23T07:59:29.489Z,-2.56
2023-01-23T08:01:56.160Z,-2.30
2023-01-23T08:04:22.538Z,-2.82
2023-01-23T08:06:49.285Z,-3.28
2023-01-23T08:09:16.956Z,-3.21
2023-01-23T08:11:43.566Z,-3.38
2023-01-23T08:14:10.085Z,-2.59
2023-01-23T08:16:36.574Z,-2.26
2023-01-23T08:19:03.057Z,-2.02
2023-01-23T08:21:29.491Z,-1.84
2023-01-23T08:23:56.178Z,-2.67
2023-01-23T08:26:22.594Z,-2.31
2023-01-23T08:28:49.026Z,-2.50
2023-01-23T08:31:15.585Z,-2.50
2023-01-23T08:33:42.061Z,-2.88
2023-01-23T08:36:10.979Z,-2.16
2023-01-23T08:38:38.023Z,-1.72
2023-01-23T08:41:04.449Z,-1.50
2023-01-23T08:43:31.043Z,-2.04
2023-01-23T08:45:57.544Z,-1.94
2023-01-23T08:48:24.532Z,-2.13
2023-01-23T08:50:51.071Z,-2.26
2023-01-23T08:53:17.598Z,-2.47
2023-01-23T08:55:44.159Z,-2.13
2023-01-23T08:58:11.074Z,-1.97
2023-01-23T09:00:37.680Z,-2.08
2023-01-23T09:03:04.700Z,-1.97
2023-01-23T09:05:31.183Z,-2.39
2023-01-23T09:07:58.943Z,-1.96
2023-01-23T09:10:25.629Z,-2.20
2023-01-23T09:12:52.059Z,-2.74
2023-01-23T09:15:19.094Z,-2.44
2023-01-23T09:17:45.559Z,-2.84
2023-01-23T09:20:12.045Z,-2.73
2023-01-23T09:22:38.454Z,-2.17
2023-01-23T09:25:04.926Z,-2.81
2023-01-23T09:27:31.851Z,-2.05
2023-01-23T09:29:58.635Z,-2.23
2023-01-23T09:32:25.341Z,-1.99
2023-01-23T09:34:52.057Z,-2.43
2023-01-23T09:37:18.433Z,-2.39
2023-01-23T09:39:45.159Z,-2.29
2023-01-23T09:42:11.680Z,-1.94
2023-01-23T09:44:38.344Z,-1.94
2023-01-23T09:47:06.807Z,-2.40
2023-01-23T09:49:33.245Z,-2.41
2023-01-23T09:52:00.017Z,-2.22
2023-01-23T09:54:26.488Z,-1.28
2023-01-23T09:56:53.118Z,-1.86
2023-01-23T09:59:20.694Z,-1.65
2023-01-23T10:01:47.049Z,-1.54
2023-01-23T10:04:13.753Z,-1.96
2023-01-23T10:06:40.295Z,-1.75
2023-01-23T10:09:06.752Z,-2.15
2023-01-23T10:11:33.117Z,-2.13
2023-01-23T10:13:59.638Z,-1.81
2023-01-23T10:16:26.169Z,-2.50
2023-01-23T10:18:52.681Z,-2.07
2023-01-23T10:21:20.616Z,-1.74
2023-01-23T10:23:46.975Z,-1.76
2023-01-23T10:26:14.044Z,-2.00
2023-01-23T10:28:41.249Z,-2.25
2023-01-23T10:31:07.791Z,-2.45
2023-01-23T10:33:34.424Z,-2.78
2023-01-23T10:36:01.836Z,-1.69
2023-01-23T10:38:28.378Z,-1.42
2023-01-23T10:40:55.292Z,-1.78
2023-01-23T10:43:22.294Z,-1.92
2023-01-23T10:45:48.737Z,-1.37
2023-01-23T10:48:17.402Z,-1.13
2023-01-23T10:50:43.866Z,-1.33
2023-01-23T10:53:10.343Z,-1.69
2023-01-23T10:55:36.783Z,-1.34
2023-01-23T10:58:03.334Z,-1.49
2023-01-23T11:00:29.792Z,-2.45
2023-01-23T11:02:56.292Z,-2.03
2023-01-23T11:05:22.807Z,-1.30
2023-01-23T11:07:49.677Z,-1.52
2023-01-23T11:10:16.263Z,-1.71
2023-01-23T11:12:43.099Z,-1.81
2023-01-23T11:15:10.583Z,-1.27
2023-01-23T11:17:37.118Z,-1.04
2023-01-23T11:20:03.501Z,-0.76
2023-01-23T11:22:30.162Z,-1.08
2023-01-23T11:24:56.603Z,-1.38
2023-01-23T11:27:25.292Z,-1.25
2023-01-23T11:29:51.697Z,-1.58
2023-01-23T11:32:18.223Z,-1.52
2023-01-23T11:34:45.076Z,-1.18
2023-01-23T11:37:11.629Z,-1.26
2023-01-23T11:39:38.178Z,-1.32
2023-01-23T11:42:04.769Z,-1.43
2023-01-23T11:44:38.076Z,-1.19
2023-01-23T11:47:11.795Z,-0.92
2023-01-23T11:49:38.229Z,-1.05
2023-01-23T11:52:05.098Z,-0.76
2023-01-23T11:54:31.770Z,-0.67
2023-01-23T11:56:58.238Z,-0.69
2023-01-23T11:59:24.700Z,-0.67
2023-01-23T12:02:02.550Z,-0.96
2023-01-23T12:04:29.843Z,-1.37
2023-01-23T12:06:56.317Z,-1.67
2023-01-23T12:09:23.000Z,-1.27
2023-01-23T12:11:49.522Z,-1.44
2023-01-23T12:14:16.126Z,-0.88
2023-01-23T12:16:42.850Z,-0.53
2023-01-23T12:19:09.612Z,-1.18
2023-01-23T12:21:36.053Z,-1.43
2023-01-23T12:24:02.630Z,-1.48
2023-01-23T12:26:29.549Z,-0.85
2023-01-23T12:28:56.021Z,-0.64
2023-01-23T12:31:22.879Z,-0.31
2023-01-23T12:33:49.387Z,-0.32
2023-01-23T12:36:15.861Z,-0.21
2023-01-23T12:38:42.721Z,-0.92
2023-01-23T12:41:09.144Z,-0.73
2023-01-23T12:43:35.808Z,-0.81
2023-01-23T12:46:02.280Z,-0.85
2023-01-23T12:48:28.685Z,-0.45
2023-01-23T12:50:55.483Z,-0.38
2023-01-23T12:53:22.217Z,-0.55
2023-01-23T12:55:49.749Z,-1.10
2023-01-23T12:58:16.231Z,-0.71
2023-01-23T13:00:43.200Z,-0.80
2023-01-23T13:03:09.842Z,-0.62
2023-01-23T13:05:36.300Z,-0.26
2023-01-23T13:08:02.838Z,-0.51
2023-01-23T13:10:29.248Z,-0.68
2023-01-23T13:12:55.802Z,-0.91
2023-01-23T13:15:30.821Z,-0.47
2023-01-23T13:18:01.651Z,-0.44
2023-01-23T13:20:28.206Z,-0.39
2023-01-23T13:22:54.606Z,-0.80
2023-01-23T13:25:22.103Z,-0.64
2023-01-23T13:27:48.772Z,-0.25
2023-01-23T13:30:15.183Z,-0.03
2023-01-23T13:32:41.878Z,-0.55
2023-01-23T13:35:08.817Z,-0.39
2023-01-23T13:37:35.359Z,-0.99
2023-01-23T13:40:06.822Z,-0.69
2023-01-23T13:42:33.614Z,-0.42
2023-01-23T13:45:00.134Z,-0.46
2023-01-23T14:22:16.556Z,-0.64
2023-01-23T14:24:43.115Z,-0.63
2023-01-23T14:27:11.557Z,-0.18
2023-01-23T14:29:39.297Z,-0.40
2023-01-23T14:32:05.827Z,0.09
2023-01-23T14:34:32.325Z,-0.69
2023-01-23T14:36:58.854Z,-0.64
2023-01-23T14:39:25.258Z,-0.85
2023-01-23T14:41:51.894Z,-1.40
2023-01-23T14:44:18.338Z,-1.10
2023-01-23T14:46:44.768Z,-1.58
2023-01-23T14:49:11.536Z,-1.73
2023-01-23T14:51:37.943Z,-1.43
2023-01-23T14:54:06.460Z,-1.02
2023-01-23T14:56:37.479Z,-0.84
2023-01-23T14:59:03.932Z,-0.89
2023-01-23T15:01:30.747Z,-0.35
2023-01-23T15:03:58.182Z,-0.05
2023-01-23T15:06:24.618Z,-0.89
2023-01-23T15:08:51.207Z,-0.94
2023-01-23T15:11:17.693Z,-0.76
2023-01-23T15:13:44.139Z,-0.41
2023-01-23T15:16:10.882Z,-0.48
2023-01-23T15:18:37.294Z,-0.13
2023-01-23T15:21:03.865Z,-0.73
2023-01-23T15:23:30.586Z,-1.17
2023-01-23T15:26:04.460Z,-0.79
2023-01-23T15:28:31.760Z,-0.88
2023-01-23T15:30:58.214Z,-1.25
2023-01-23T15:33:25.126Z,-1.32
2023-01-23T15:35:51.593Z,-0.69
2023-01-23T15:38:18.145Z,-0.74
2023-01-23T15:40:44.757Z,-1.15
2023-01-23T15:43:11.247Z,-1.19
2023-01-23T15:45:38.254Z,-0.59
2023-01-23T15:48:04.825Z,-0.37
2023-01-23T15:50:31.449Z,-0.22
2023-01-23T15:52:58.066Z,-0.41
2023-01-23T15:55:24.846Z,-0.40
2023-01-23T15:57:52.429Z,-0.27
2023-01-23T16:00:19.349Z,-0.85
2023-01-23T16:02:55.821Z,-0.53
2023-01-23T16:05:23.448Z,-0.57
2023-01-23T16:07:49.983Z,-0.62
2023-01-23T16:10:16.407Z,-0.64
2023-01-23T16:12:43.319Z,-0.45
2023-01-23T16:15:09.805Z,-0.34
2023-01-23T16:17:36.275Z,-0.55
2023-01-23T16:20:02.792Z,-0.60
2023-01-23T16:22:29.416Z,-0.35
2023-01-23T16:24:56.321Z,-0.79
2023-01-23T16:27:22.762Z,-0.71
2023-01-23T16:29:49.776Z,-0.60
2023-01-23T16:32:17.190Z,-1.00
2023-01-23T16:34:43.866Z,-0.95
2023-01-23T16:37:12.049Z,-0.60
2023-01-23T16:39:38.534Z,-1.10
2023-01-23T16:42:08.166Z,-0.83
2023-01-23T16:44:34.875Z,-0.56
2023-01-23T16:47:01.618Z,-1.09
2023-01-23T16:49:28.139Z,-0.51
2023-01-23T16:51:54.685Z,-0.49
2023-01-23T16:54:21.408Z,-0.53
2023-01-23T16:56:49.703Z,-0.77
2023-01-23T16:59:16.720Z,-0.98
2023-01-23T17:01:43.870Z,-0.22
2023-01-23T17:04:11.708Z,-0.32
2023-01-23T17:06:38.240Z,-0.30
2023-01-23T17:09:04.770Z,-0.25
2023-01-23T17:11:31.912Z,-0.66
2023-01-23T17:13:58.602Z,-0.83
2023-01-23T17:16:27.633Z,-0.56
2023-01-23T17:18:54.958Z,-0.87
2023-01-23T17:21:22.093Z,-0.33
2023-01-23T17:23:48.701Z,-0.60
2023-01-23T17:26:15.675Z,-0.73
2023-01-23T17:28:42.838Z,-0.41
2023-01-23T17:31:09.557Z,-0.38
2023-01-23T17:33:37.272Z,-0.79
2023-01-23T17:36:04.204Z,-0.71
2023-01-23T17:38:34.889Z,-0.41
2023-01-23T17:41:01.770Z,-0.12
2023-01-23T17:43:28.582Z,-0.54
2023-01-23T17:45:55.970Z,-0.95
2023-01-23T17:48:24.125Z,-1.02
2023-01-23T17:50:54.254Z,-0.89
2023-01-23T17:53:20.919Z,-0.48
2023-01-23T17:55:47.731Z,-0.07
2023-01-23T17:58:14.139Z,-0.13
2023-01-23T18:00:40.912Z,-0.53
2023-01-23T18:03:08.146Z,-0.38
2023-01-23T18:05:35.538Z,-0.27
2023-01-23T18:08:02.403Z,-0.50
2023-01-23T18:10:29.285Z,-1.05
2023-01-23T18:12:56.362Z,-1.18
2023-01-23T18:15:23.744Z,-1.03
2023-01-23T18:17:53.230Z,-0.85
2023-01-23T18:20:20.237Z,-0.86
2023-01-23T18:22:47.967Z,-0.75
2023-01-23T18:25:15.841Z,-1.12
2023-01-23T18:27:42.861Z,-1.24
2023-01-23T18:30:10.526Z,-0.91
2023-01-23T18:32:37.673Z,-0.83
2023-01-23T18:35:07.560Z,-1.21
2023-01-23T18:37:35.399Z,-0.89
2023-01-23T18:40:05.996Z,-0.24
2023-01-23T18:42:33.526Z,-0.42
2023-01-23T18:45:02.808Z,-0.51
2023-01-23T18:47:31.559Z,-0.07
2023-01-23T18:50:01.058Z,-0.27
2023-01-23T18:52:37.723Z,-0.07
2023-01-23T18:55:05.336Z,-0.33
2023-01-23T18:57:32.436Z,0.05
2023-01-23T19:00:00.300Z,0.24
2023-01-23T19:02:27.793Z,0.04
2023-01-23T19:04:55.142Z,-0.10
2023-01-23T19:07:22.243Z,-0.27
2023-01-23T19:09:49.275Z,-0.48
2023-01-23T19:12:24.879Z,0.23
2023-01-23T19:14:52.609Z,-0.00
2023-01-23T19:17:20.358Z,-0.06
2023-01-23T19:19:50.716Z,0.09
2023-01-23T19:22:18.330Z,-0.08
2023-01-23T19:24:45.248Z,-0.19
2023-01-23T19:27:12.608Z,-0.59
2023-01-23T19:29:39.575Z,-0.55
2023-01-23T19:32:07.072Z,-0.15
2023-01-23T19:34:35.784Z,-0.01
2023-01-23T19:37:02.577Z,-0.19
2023-01-23T19:39:29.739Z,-0.28
2023-01-23T19:41:56.808Z,-0.75
2023-01-23T19:44:24.769Z,-0.85
2023-01-23T19:46:53.144Z,-0.68
2023-01-23T19:49:20.451Z,-0.14
2023-01-23T19:51:47.518Z,-0.02
2023-01-23T19:54:14.600Z,-0.39
2023-01-23T19:56:42.547Z,-0.44
2023-01-23T19:59:09.802Z,-0.18
2023-01-23T20:01:37.383Z,-0.38
2023-01-23T20:04:04.751Z,-0.22
2023-01-23T20:06:32.061Z,0.10
2023-01-23T20:08:59.110Z,0.16
2023-01-23T20:11:25.983Z,0.26
2023-01-23T20:13:53.776Z,0.35
2023-01-23T20:16:20.444Z,0.29
2023-01-23T20:18:48.531Z,0.03
2023-01-23T20:21:15.482Z,0.07
2023-01-23T20:23:43.340Z,0.35
2023-01-23T20:26:10.274Z,0.32
2023-01-23T20:28:37.576Z,0.31
2023-01-23T20:31:05.207Z,0.00
2023-01-23T20:33:34.708Z,-0.35
2023-01-23T20:36:01.742Z,-0.18
2023-01-23T20:38:29.425Z,-0.33
2023-01-23T20:40:57.005Z,-0.51
2023-01-23T20:43:26.099Z,-0.24
2023-01-23T20:45:54.296Z,0.17
2023-01-23T20:48:21.166Z,0.20
2023-01-23T20:50:48.598Z,0.23
2023-01-23T20:53:15.198Z,0.36
2023-01-23T20:55:41.666Z,0.25
2023-01-23T20:58:08.568Z,0.37
2023-01-23T21:00:35.906Z,0.33
2023-01-23T21:03:03.611Z,0.48
2023-01-23T21:05:30.706Z,0.56
2023-01-23T21:07:57.752Z,0.26
2023-01-23T21:10:24.756Z,0.69
2023-01-23T21:12:51.969Z,0.67
2023-01-23T21:15:20.259Z,0.25
2023-01-23T21:17:49.981Z,0.36
2023-01-23T21:20:16.702Z,0.28
2023-01-23T21:22:43.140Z,0.43
2023-01-23T21:25:09.725Z,0.33
2023-01-23T21:27:37.468Z,0.15
2023-01-23T21:30:04.272Z,0.17
2023-01-23T21:32:32.292Z,0.43
2023-01-23T21:34:59.136Z,0.53
2023-01-23T21:37:26.360Z,0.21
2023-01-23T21:39:53.254Z,0.46
2023-01-23T21:42:19.894Z,0.13
2023-01-23T21:44:46.575Z,0.06
2023-01-23T21:47:13.135Z,0.00
2023-01-23T21:49:39.558Z,-0.22
2023-01-23T21:52:05.995Z,-0.01
2023-01-23T21:54:33.617Z,-0.13
2023-01-23T21:57:00.528Z,-0.51
2023-01-23T21:59:26.971Z,-0.13
2023-01-23T22:01:53.397Z,0.06
2023-01-23T22:04:20.064Z,0.04
2023-01-23T22:06:46.516Z,-0.07
2023-01-23T22:09:13.330Z,0.03
2023-01-23T22:11:39.787Z,-0.80
2023-01-23T22:14:06.543Z,-0.49
2023-01-23T22:16:47.395Z,-0.25
2023-01-23T22:19:14.669Z,-0.22
2023-01-23T22:21:41.226Z,0.06
2023-01-23T22:24:07.764Z,0.15
2023-01-23T22:26:34.464Z,-0.45
2023-01-23T22:29:02.161Z,-0.58
2023-01-23T22:31:28.655Z,-0.57
2023-01-23T22:33:55.121Z,-0.60
2023-01-23T22:36:21.749Z,-0.30
2023-01-23T22:38:48.411Z,-0.09
2023-01-23T22:41:14.867Z,0.29
2023-01-23T22:43:41.548Z,0.39
2023-01-23T22:46:08.344Z,0.58
2023-01-23T22:48:34.710Z,0.55
2023-01-23T22:51:01.226Z,0.43
2023-01-23T22:53:27.877Z,0.64
2023-01-23T22:55:54.287Z,0.46
2023-01-23T22:58:20.678Z,0.56
2023-01-23T23:00:47.146Z,0.01
2023-01-23T23:03:13.526Z,0.44
2023-01-23T23:05:40.327Z,0.16
2023-01-23T23:08:07.178Z,0.29
2023-01-23T23:10:33.609Z,0.32
2023-01-23T23:13:00.031Z,-0.51
2023-01-23T23:15:26.560Z,-0.13
2023-01-23T23:17:53.049Z,0.13
2023-01-23T23:20:19.461Z,-0.22
2023-01-23T23:22:46.164Z,0.25
2023-01-23T23:25:12.736Z,0.12
2023-01-23T23:27:39.340Z,0.52
2023-01-23T23:30:05.934Z,0.29
2023-01-23T23:32:32.487Z,0.25
2023-01-23T23:34:58.963Z,0.29
2023-01-23T23:37:26.143Z,-0.14
2023-01-23T23:39:53.016Z,-0.18
2023-01-23T23:42:19.512Z,0.23
2023-01-23T23:44:46.386Z,0.22
2023-01-23T23:47:13.181Z,-0.27
2023-01-23T23:49:39.808Z,-0.00
2023-01-23T23:52:06.704Z,-0.47
2023-01-23T23:54:33.179Z,-0.65
2023-01-23T23:56:59.781Z,-0.30
2023-01-23T23:59:26.195Z,-0.17
